Time;durP1;ratioP1;P1;durP2;ratioP2;P2;SDS_P1;SDS_P2;PMS_P1;PMS_P2;Temp;Humidity;BMP_temperature;BMP_pressure;BME280_temperature;BME280_humidity;BME280_pressure;Samples;Min_cycle;Max_cycle;Signal;HPM_P1;HPM_P2
2023/12/27 00:01:28;;;;;;;3.30;1.60;;;4.70;99.90;;;;;;4979685;28;20533;-64
2023/12/27 00:03:56;;;;;;;9.13;1.97;;;4.80;99.90;;;;;;4979846;28;20991;-64
2023/12/27 00:06:24;;;;;;;6.80;1.80;;;4.70;99.90;;;;;;4978740;28;20922;-64
2023/12/27 00:08:53;;;;;;;4.70;1.70;;;4.70;99.90;;;;;;4977990;28;20651;-64
2023/12/27 00:11:21;;;;;;;5.83;2.20;;;4.70;99.90;;;;;;4979745;28;20469;-64
2023/12/27 00:13:49;;;;;;;5.70;2.03;;;4.70;99.90;;;;;;4981058;28;20569;-64
2023/12/27 00:16:17;;;;;;;5.50;1.77;;;4.70;99.90;;;;;;4977800;28;20576;-64
2023/12/27 00:18:45;;;;;;;2.70;1.43;;;4.70;99.90;;;;;;4978120;28;20640;-64
2023/12/27 00:21:13;;;;;;;9.30;2.10;;;4.70;99.90;;;;;;4978431;28;20501;-64
2023/12/27 00:23:41;;;;;;;3.80;1.63;;;4.70;99.90;;;;;;4979543;28;20477;-64
2023/12/27 00:26:11;;;;;;;3.70;1.60;;;4.70;99.90;;;;;;4978604;28;20663;-64
2023/12/27 00:28:39;;;;;;;4.97;2.07;;;4.70;99.90;;;;;;4980724;28;20484;-63
2023/12/27 00:31:07;;;;;;;8.80;2.27;;;4.70;99.90;;;;;;4978617;28;20466;-64
2023/12/27 00:33:35;;;;;;;4.67;1.70;;;4.70;99.90;;;;;;4983599;28;20970;-64
2023/12/27 00:36:04;;;;;;;4.90;1.70;;;4.60;99.90;;;;;;4979425;28;20531;-64
2023/12/27 00:38:32;;;;;;;5.57;1.90;;;4.70;99.90;;;;;;4981632;28;20524;-64
2023/12/27 00:41:01;;;;;;;5.07;2.00;;;4.60;99.90;;;;;;4983261;28;20924;-64
2023/12/27 00:43:30;;;;;;;6.43;1.93;;;4.60;99.90;;;;;;4983164;28;20899;-64
2023/12/27 00:45:58;;;;;;;7.50;1.93;;;4.60;99.90;;;;;;4982062;28;21059;-64
2023/12/27 00:48:26;;;;;;;5.00;1.80;;;4.70;99.90;;;;;;4981831;28;20482;-64
2023/12/27 00:50:54;;;;;;;9.10;2.13;;;4.70;99.90;;;;;;4981888;28;20527;-64
2023/12/27 00:53:22;;;;;;;11.30;2.10;;;4.70;99.90;;;;;;4983197;28;20481;-64
2023/12/27 00:55:50;;;;;;;6.07;1.90;;;4.70;99.90;;;;;;4983064;28;20551;-64
2023/12/27 00:58:18;;;;;;;6.33;2.10;;;4.60;99.90;;;;;;4983225;28;20482;-64
2023/12/27 01:00:48;;;;;;;8.03;2.47;;;4.60;99.90;;;;;;4983205;28;21010;-64
2023/12/27 01:03:16;;;;;;;5.80;1.83;;;4.60;99.90;;;;;;4981979;28;20497;-64
2023/12/27 01:05:44;;;;;;;8.63;1.90;;;4.60;99.90;;;;;;4981048;28;20477;-64
2023/12/27 01:08:12;;;;;;;5.10;1.63;;;4.60;99.90;;;;;;4982669;28;20997;-64
2023/12/27 01:10:40;;;;;;;3.30;1.83;;;4.60;99.90;;;;;;4983537;28;20482;-64
2023/12/27 01:13:08;;;;;;;3.87;1.60;;;4.60;99.90;;;;;;4981210;28;20556;-64
2023/12/27 01:15:36;;;;;;;5.37;1.70;;;4.50;99.90;;;;;;4982219;28;20478;-64
2023/12/27 01:18:06;;;;;;;5.20;1.43;;;4.50;99.90;;;;;;4981513;28;20529;-64
2023/12/27 01:20:34;;;;;;;3.97;1.90;;;4.50;99.90;;;;;;4980014;28;21152;-64
2023/12/27 01:23:02;;;;;;;3.77;1.73;;;4.50;99.90;;;;;;4982893;28;20472;-64
2023/12/27 01:25:30;;;;;;;6.33;1.93;;;4.50;99.90;;;;;;4982166;28;20481;-64
2023/12/27 01:27:58;;;;;;;3.63;1.80;;;4.50;99.90;;;;;;4981668;28;20482;-64
2023/12/27 01:30:27;;;;;;;8.03;2.07;;;4.50;99.90;;;;;;4982743;28;20962;-64
2023/12/27 01:32:55;;;;;;;4.63;1.77;;;4.50;99.90;;;;;;4983440;28;20472;-64
2023/12/27 01:35:24;;;;;;;6.80;1.53;;;4.50;99.90;;;;;;4981958;28;20469;-64
2023/12/27 01:37:52;;;;;;;5.70;1.73;;;4.50;99.90;;;;;;4981060;28;20836;-64
2023/12/27 01:40:20;;;;;;;5.43;1.50;;;4.50;99.90;;;;;;4982072;28;20492;-64
2023/12/27 01:42:48;;;;;;;8.73;2.10;;;4.50;99.90;;;;;;4982192;28;20540;-64
2023/12/27 01:45:16;;;;;;;4.83;2.20;;;4.50;99.90;;;;;;4980211;28;20508;-64
2023/12/27 01:47:45;;;;;;;5.33;1.93;;;4.50;99.90;;;;;;4981921;28;20497;-64
2023/12/27 01:50:13;;;;;;;5.40;1.97;;;4.40;99.90;;;;;;4980479;28;20496;-64
2023/12/27 01:52:43;;;;;;;3.60;1.57;;;4.40;99.90;;;;;;4982067;28;20509;-64
2023/12/27 01:55:11;;;;;;;5.50;1.33;;;4.40;99.90;;;;;;4981458;28;20546;-64
2023/12/27 01:57:40;;;;;;;6.57;2.20;;;4.40;99.90;;;;;;4981040;28;20524;-64
2023/12/27 02:00:09;;;;;;;4.10;1.50;;;4.30;99.90;;;;;;4981419;28;21852;-64
2023/12/27 02:02:38;;;;;;;3.57;1.90;;;4.30;99.90;;;;;;4980398;28;20551;-62
2023/12/27 02:05:07;;;;;;;9.00;1.73;;;4.30;99.90;;;;;;4981380;28;20497;-64
2023/12/27 02:07:36;;;;;;;5.30;1.63;;;4.30;99.90;;;;;;4981735;28;20502;-64
2023/12/27 02:10:07;;;;;;;3.53;1.90;;;4.30;99.90;;;;;;4977015;28;20482;-64
2023/12/27 02:12:35;;;;;;;3.93;1.87;;;4.30;99.90;;;;;;4981301;28;20531;-64
2023/12/27 02:15:03;;;;;;;4.20;2.07;;;4.20;99.90;;;;;;4982002;28;20575;-64
2023/12/27 02:17:33;;;;;;;5.10;1.70;;;4.20;99.90;;;;;;4981844;28;20516;-64
2023/12/27 02:20:02;;;;;;;5.20;1.30;;;4.20;99.90;;;;;;4980046;28;20489;-64
2023/12/27 02:22:33;;;;;;;3.40;1.60;;;4.20;99.90;;;;;;4981584;28;20581;-64
2023/12/27 02:25:02;;;;;;;6.43;2.23;;;4.20;99.90;;;;;;4981863;28;20497;-64
2023/12/27 02:27:31;;;;;;;8.90;1.90;;;4.20;99.90;;;;;;4979224;28;20517;-64
2023/12/27 02:29:59;;;;;;;4.63;1.67;;;4.10;99.90;;;;;;4979509;28;20643;-64
2023/12/27 02:32:27;;;;;;;7.27;1.97;;;4.10;99.90;;;;;;4981244;28;20476;-64
2023/12/27 02:34:55;;;;;;;4.13;2.27;;;4.00;99.90;;;;;;4980628;28;20477;-64
2023/12/27 02:37:23;;;;;;;4.97;1.60;;;4.00;99.90;;;;;;4979352;28;20521;-64
2023/12/27 02:39:51;;;;;;;4.97;1.50;;;3.90;99.90;;;;;;4980149;28;20579;-64
2023/12/27 02:42:20;;;;;;;6.50;1.83;;;3.90;99.90;;;;;;4980614;28;20495;-64
2023/12/27 02:44:48;;;;;;;9.20;1.87;;;4.00;99.90;;;;;;4981023;28;20470;-63
2023/12/27 02:47:16;;;;;;;3.63;1.90;;;3.90;99.90;;;;;;4979693;28;20572;-64
2023/12/27 02:49:44;;;;;;;5.47;1.87;;;3.90;99.90;;;;;;4980869;28;20485;-64
2023/12/27 02:52:12;;;;;;;6.07;1.80;;;3.90;99.90;;;;;;4978923;28;20465;-64
2023/12/27 02:54:40;;;;;;;9.07;1.93;;;3.90;99.90;;;;;;4980981;28;20560;-64
2023/12/27 02:57:08;;;;;;;5.53;2.20;;;3.90;99.90;;;;;;4979544;28;20528;-64
2023/12/27 02:59:38;;;;;;;6.83;2.07;;;3.90;99.90;;;;;;4978919;28;20540;-64
2023/12/27 03:02:06;;;;;;;6.47;2.20;;;3.90;99.90;;;;;;4980739;28;20504;-64
2023/12/27 03:04:34;;;;;;;5.30;1.80;;;3.90;99.90;;;;;;4977389;28;20472;-64
2023/12/27 03:07:02;;;;;;;8.10;1.50;;;3.80;99.90;;;;;;4981739;28;21100;-64
2023/12/27 03:09:31;;;;;;;5.60;1.93;;;3.80;99.90;;;;;;4979602;28;21015;-64
2023/12/27 03:11:59;;;;;;;5.60;2.30;;;3.80;99.90;;;;;;4980849;28;20474;-64
2023/12/27 03:14:27;;;;;;;5.23;1.67;;;3.80;99.90;;;;;;4979143;28;20564;-63
2023/12/27 03:16:57;;;;;;;3.90;1.50;;;3.80;99.90;;;;;;4980497;28;20930;-63
2023/12/27 03:19:25;;;;;;;5.33;1.40;;;3.80;99.90;;;;;;4978126;28;20583;-64
2023/12/27 03:21:53;;;;;;;3.77;1.80;;;3.80;99.90;;;;;;4979255;28;20511;-64
2023/12/27 03:24:21;;;;;;;6.23;2.17;;;3.80;99.90;;;;;;4978937;28;20559;-64
2023/12/27 03:26:49;;;;;;;3.50;1.40;;;3.70;99.90;;;;;;4979973;28;20576;-63
2023/12/27 03:29:17;;;;;;;5.37;1.80;;;3.70;99.90;;;;;;4979511;28;20850;-64
2023/12/27 03:31:45;;;;;;;4.40;1.60;;;3.70;99.90;;;;;;4980860;28;20466;-63
2023/12/27 03:34:14;;;;;;;3.40;1.30;;;3.70;99.90;;;;;;4978525;28;20564;-63
2023/12/27 03:36:43;;;;;;;4.87;2.10;;;3.70;99.90;;;;;;4979423;28;20490;-63
2023/12/27 03:39:11;;;;;;;3.73;1.83;;;3.70;99.90;;;;;;4978144;28;21145;-64
2023/12/27 03:41:39;;;;;;;5.23;1.80;;;3.70;99.90;;;;;;4979128;28;20477;-63
2023/12/27 03:44:07;;;;;;;8.00;1.80;;;3.70;99.90;;;;;;4979829;28;20944;-63
2023/12/27 03:46:35;;;;;;;7.37;1.90;;;3.70;99.90;;;;;;4978911;28;20721;-63
2023/12/27 03:49:03;;;;;;;6.50;2.00;;;3.70;99.90;;;;;;4979313;28;20950;-64
2023/12/27 03:51:33;;;;;;;4.10;1.53;;;3.70;99.90;;;;;;4980585;28;20484;-64
2023/12/27 03:54:04;;;;;;;4.17;1.83;;;3.70;99.90;;;;;;4979496;28;20464;-64
2023/12/27 03:56:32;;;;;;;4.03;1.60;;;3.60;99.90;;;;;;4975734;28;20501;-64
2023/12/27 03:59:03;;;;;;;5.87;1.60;;;3.60;99.90;;;;;;4979962;28;20943;-64
2023/12/27 04:01:31;;;;;;;3.83;1.70;;;3.60;99.90;;;;;;4979638;28;20477;-63
2023/12/27 04:03:59;;;;;;;4.30;1.77;;;3.60;99.90;;;;;;4979424;28;20901;-63
2023/12/27 04:06:27;;;;;;;5.80;1.77;;;3.60;99.90;;;;;;4981575;28;20495;-63
2023/12/27 04:08:57;;;;;;;7.23;2.00;;;3.60;99.90;;;;;;4981085;28;20488;-63
2023/12/27 04:11:25;;;;;;;4.73;1.70;;;3.60;99.90;;;;;;4982688;28;21762;-64
2023/12/27 04:13:53;;;;;;;7.27;1.90;;;3.60;99.90;;;;;;4984559;28;20475;-64
2023/12/27 04:16:20;;;;;;;5.83;2.07;;;3.60;99.90;;;;;;4982332;28;20580;-64
2023/12/27 04:18:48;;;;;;;7.80;3.50;;;3.60;99.90;;;;;;4982240;28;20485;-64
2023/12/27 04:21:16;;;;;;;7.70;2.47;;;3.60;99.90;;;;;;4982142;28;20477;-64
2023/12/27 04:23:44;;;;;;;4.73;2.00;;;3.60;99.90;;;;;;4983693;28;20496;-64
2023/12/27 04:26:13;;;;;;;6.93;2.13;;;3.60;99.90;;;;;;4982949;28;21089;-63
2023/12/27 04:28:41;;;;;;;4.50;1.67;;;3.60;99.90;;;;;;4980637;28;20587;-64
2023/12/27 04:31:09;;;;;;;4.70;2.30;;;3.60;99.90;;;;;;4980108;28;20567;-64
2023/12/27 04:33:37;;;;;;;3.87;2.10;;;3.60;99.90;;;;;;4984108;28;20478;-64
2023/12/27 04:36:06;;;;;;;4.20;1.77;;;3.60;99.90;;;;;;4981136;28;20552;-63
2023/12/27 04:38:34;;;;;;;5.53;1.73;;;3.60;99.90;;;;;;4982631;28;20485;-64
2023/12/27 04:41:07;;;;;;;4.13;1.80;;;3.60;99.90;;;;;;4982351;28;20557;-64
2023/12/27 04:43:37;;;;;;;5.73;2.40;;;3.50;99.90;;;;;;4983003;28;20575;-64
2023/12/27 04:46:06;;;;;;;5.50;1.67;;;3.60;99.90;;;;;;4982098;28;20493;-64
2023/12/27 04:48:34;;;;;;;3.40;2.00;;;3.50;99.90;;;;;;4981048;28;20484;-64
2023/12/27 04:51:03;;;;;;;7.53;2.03;;;3.50;99.90;;;;;;4983378;28;20555;-64
2023/12/27 04:53:31;;;;;;;4.17;1.90;;;3.40;99.90;;;;;;4984207;28;20543;-64
2023/12/27 04:55:59;;;;;;;6.07;1.73;;;3.40;99.90;;;;;;4981567;28;20521;-64
2023/12/27 04:58:27;;;;;;;4.27;2.27;;;3.40;99.90;;;;;;4983404;28;20521;-64
2023/12/27 05:00:56;;;;;;;4.30;1.70;;;3.40;99.90;;;;;;4981830;28;20581;-64
2023/12/27 05:03:24;;;;;;;3.40;1.90;;;3.40;99.90;;;;;;4981518;28;20587;-64
2023/12/27 05:05:53;;;;;;;6.17;2.27;;;3.30;99.90;;;;;;4982627;28;20580;-64
2023/12/27 05:08:21;;;;;;;7.40;1.73;;;3.30;99.90;;;;;;4982379;28;20489;-65
2023/12/27 05:10:49;;;;;;;3.07;2.03;;;3.30;99.90;;;;;;4983674;28;20560;-65
2023/12/27 05:13:17;;;;;;;4.87;2.10;;;3.30;99.90;;;;;;4982758;28;20470;-65
2023/12/27 05:15:46;;;;;;;6.37;2.13;;;3.30;99.90;;;;;;4974653;28;20560;-64
2023/12/27 05:18:15;;;;;;;5.00;1.77;;;3.40;99.90;;;;;;4979784;28;20477;-64
2023/12/27 05:20:43;;;;;;;6.20;1.90;;;3.40;99.90;;;;;;4981527;28;20474;-64
2023/12/27 05:23:11;;;;;;;4.10;1.60;;;3.40;99.90;;;;;;4983007;28;20579;-65
2023/12/27 05:25:40;;;;;;;6.80;2.70;;;3.40;99.90;;;;;;4981717;28;20962;-64
2023/12/27 05:28:07;;;;;;;4.30;1.80;;;3.40;99.90;;;;;;4979373;28;20493;-65
2023/12/27 05:30:35;;;;;;;6.93;2.00;;;3.40;99.90;;;;;;4982163;28;20574;-64
2023/12/27 05:33:04;;;;;;;7.93;2.13;;;3.40;99.90;;;;;;4980649;28;20482;-64
2023/12/27 05:35:34;;;;;;;6.37;2.00;;;3.50;99.90;;;;;;4982019;28;20512;-64
2023/12/27 05:38:02;;;;;;;7.20;2.20;;;3.50;99.90;;;;;;4982735;28;20539;-64
2023/12/27 05:40:30;;;;;;;5.33;1.73;;;3.50;99.90;;;;;;4982508;28;20516;-64
2023/12/27 05:42:58;;;;;;;6.37;1.87;;;3.50;99.90;;;;;;4975123;28;20585;-65
2023/12/27 05:45:26;;;;;;;7.70;2.27;;;3.50;99.90;;;;;;4981528;28;20561;-65
2023/12/27 05:47:54;;;;;;;6.00;2.30;;;3.60;99.90;;;;;;4981368;28;20551;-65
2023/12/27 05:50:22;;;;;;;3.53;1.73;;;3.60;99.90;;;;;;4979887;28;20990;-65
2023/12/27 05:52:51;;;;;;;6.07;2.40;;;3.60;99.90;;;;;;4979766;28;20947;-65
2023/12/27 05:55:19;;;;;;;3.97;2.90;;;3.60;99.90;;;;;;4979989;28;20837;-65
2023/12/27 05:57:48;;;;;;;3.57;1.80;;;3.60;99.90;;;;;;4980041;28;20944;-64
2023/12/27 06:00:16;;;;;;;5.40;2.13;;;3.70;99.90;;;;;;4979996;28;20560;-64
2023/12/27 06:02:44;;;;;;;5.07;2.00;;;3.60;99.90;;;;;;4977805;28;20560;-65
2023/12/27 06:05:12;;;;;;;2.97;1.70;;;3.60;99.90;;;;;;4978831;28;20470;-64
2023/12/27 06:07:40;;;;;;;5.50;2.10;;;3.70;99.90;;;;;;4979949;28;20481;-64
2023/12/27 06:10:10;;;;;;;3.53;1.70;;;3.70;99.90;;;;;;4978715;28;20969;-64
2023/12/27 06:12:38;;;;;;;3.67;1.80;;;3.70;99.90;;;;;;4979703;28;20616;-64
2023/12/27 06:15:08;;;;;;;2.40;1.57;;;3.70;99.90;;;;;;4978977;28;20457;-64
2023/12/27 06:17:36;;;;;;;8.50;2.53;;;3.70;99.90;;;;;;4981812;28;20493;-64
2023/12/27 06:20:05;;;;;;;5.93;2.00;;;3.70;99.90;;;;;;4976983;28;20482;-64
2023/12/27 06:22:33;;;;;;;4.20;1.90;;;3.70;99.90;;;;;;4978223;28;20875;-64
2023/12/27 06:25:02;;;;;;;5.37;1.70;;;3.70;99.90;;;;;;4982167;28;20901;-64
2023/12/27 06:27:31;;;;;;;5.00;2.00;;;3.80;99.90;;;;;;4981025;28;20510;-64
2023/12/27 06:29:59;;;;;;;5.17;1.70;;;3.80;99.90;;;;;;4978836;28;21004;-64
2023/12/27 06:32:27;;;;;;;3.70;1.87;;;3.80;99.90;;;;;;4981691;28;20492;-64
2023/12/27 06:34:56;;;;;;;3.53;1.83;;;3.80;99.90;;;;;;4982246;28;20471;-64
2023/12/27 06:37:24;;;;;;;3.73;1.60;;;3.80;99.90;;;;;;4979924;28;20569;-64
2023/12/27 06:39:52;;;;;;;5.60;2.20;;;3.80;99.90;;;;;;4979814;28;20517;-64
2023/12/27 06:42:21;;;;;;;4.73;2.37;;;3.80;99.90;;;;;;4978822;28;20551;-63
2023/12/27 06:44:50;;;;;;;4.00;1.80;;;3.80;99.90;;;;;;4980223;28;20498;-63
2023/12/27 06:47:18;;;;;;;5.73;1.97;;;3.80;99.90;;;;;;4980485;28;20915;-64
2023/12/27 06:49:47;;;;;;;7.70;1.90;;;3.80;99.90;;;;;;4979649;28;20579;-64
2023/12/27 06:52:15;;;;;;;9.20;2.07;;;3.80;99.90;;;;;;4978753;28;21054;-64
2023/12/27 06:54:43;;;;;;;5.70;2.43;;;3.80;99.90;;;;;;4980367;28;20926;-64
2023/12/27 06:57:12;;;;;;;5.77;2.23;;;3.80;99.90;;;;;;4979081;28;20530;-64
2023/12/27 06:59:40;;;;;;;3.90;2.00;;;3.90;99.90;;;;;;4980088;28;20492;-64
2023/12/27 07:02:09;;;;;;;5.17;2.00;;;3.90;99.90;;;;;;4979916;28;20487;-64
2023/12/27 07:04:37;;;;;;;7.30;2.07;;;3.90;99.90;;;;;;4979583;28;20531;-64
2023/12/27 07:07:05;;;;;;;5.43;1.80;;;3.80;99.90;;;;;;4981016;28;20522;-64
2023/12/27 07:09:33;;;;;;;3.07;1.80;;;3.80;99.90;;;;;;4979025;28;20484;-64
2023/12/27 07:12:02;;;;;;;3.30;1.77;;;3.80;99.90;;;;;;4979886;28;20552;-64
2023/12/27 07:14:30;;;;;;;4.23;2.13;;;3.80;99.90;;;;;;4979029;28;20470;-64
2023/12/27 07:16:58;;;;;;;5.03;1.83;;;3.70;99.90;;;;;;4980017;28;21078;-64
2023/12/27 07:19:27;;;;;;;2.47;1.70;;;3.70;99.90;;;;;;4980049;28;20481;-64
2023/12/27 07:21:55;;;;;;;5.97;2.00;;;3.60;99.90;;;;;;4980854;28;20500;-65
2023/12/27 07:24:23;;;;;;;3.90;2.23;;;3.60;99.90;;;;;;4980219;28;20520;-65
2023/12/27 07:26:52;;;;;;;4.47;2.30;;;3.60;99.90;;;;;;4978441;28;20540;-64
2023/12/27 07:29:19;;;;;;;4.80;2.10;;;3.60;99.90;;;;;;4978459;28;20569;-65
2023/12/27 07:31:49;;;;;;;5.33;2.50;;;3.60;99.90;;;;;;4979556;28;20528;-64
2023/12/27 07:34:17;;;;;;;2.80;1.43;;;3.50;99.90;;;;;;4980932;28;20544;-64
2023/12/27 07:36:47;;;;;;;2.80;1.70;;;3.50;99.90;;;;;;4980789;28;20906;-64
2023/12/27 07:39:16;;;;;;;2.00;1.80;;;3.50;99.90;;;;;;4978394;28;20522;-65
2023/12/27 07:41:44;;;;;;;2.80;2.10;;;3.50;99.90;;;;;;4978019;28;20917;-64
2023/12/27 07:44:12;;;;;;;3.10;2.00;;;3.50;99.90;;;;;;4980029;28;20529;-65
2023/12/27 07:46:40;;;;;;;3.17;1.53;;;3.50;99.90;;;;;;4980599;28;20938;-64
2023/12/27 07:49:08;;;;;;;3.87;1.70;;;3.40;99.90;;;;;;4977803;28;20480;-65
2023/12/27 07:51:36;;;;;;;3.00;1.90;;;3.40;99.90;;;;;;4979228;28;20608;-65
2023/12/27 07:54:06;;;;;;;3.00;1.63;;;3.40;99.90;;;;;;4980647;28;20539;-65
2023/12/27 07:56:34;;;;;;;4.43;1.90;;;3.40;99.90;;;;;;4979968;28;20489;-64
2023/12/27 07:59:03;;;;;;;3.87;1.90;;;3.40;99.90;;;;;;4975032;28;20577;-65
2023/12/27 08:01:32;;;;;;;5.70;2.40;;;3.30;99.90;;;;;;4980271;28;20469;-63
2023/12/27 08:04:00;;;;;;;3.23;1.93;;;3.30;99.90;;;;;;4976117;28;20523;-64
2023/12/27 08:06:29;;;;;;;4.63;1.87;;;3.30;99.90;;;;;;4980146;28;20552;-64
2023/12/27 08:08:57;;;;;;;4.20;1.70;;;3.30;99.90;;;;;;4979220;28;20485;-64
2023/12/27 08:11:26;;;;;;;3.53;2.00;;;3.20;99.90;;;;;;4978630;28;20485;-64
2023/12/27 08:13:54;;;;;;;6.57;2.20;;;3.20;99.90;;;;;;4979245;28;20593;-64
2023/12/27 08:16:22;;;;;;;4.90;2.60;;;3.20;99.90;;;;;;4980282;28;20572;-64
2023/12/27 08:18:50;;;;;;;6.03;2.80;;;3.20;99.90;;;;;;4978264;28;20517;-64
2023/12/27 08:21:18;;;;;;;7.30;2.83;;;3.20;99.90;;;;;;4978348;28;20466;-63
2023/12/27 08:23:46;;;;;;;5.07;2.83;;;3.20;99.90;;;;;;4979040;28;20509;-63
2023/12/27 08:26:14;;;;;;;5.83;3.20;;;3.20;99.90;;;;;;4978611;28;20505;-63
2023/12/27 08:28:44;;;;;;;5.73;2.90;;;3.20;99.90;;;;;;4978013;28;20483;-63
2023/12/27 08:31:14;;;;;;;6.20;3.10;;;3.30;99.90;;;;;;4979826;28;20465;-63
2023/12/27 08:33:44;;;;;;;6.43;3.40;;;3.30;99.90;;;;;;4980177;28;20477;-63
2023/12/27 08:36:12;;;;;;;5.93;3.57;;;3.30;99.90;;;;;;4979927;28;20527;-63
2023/12/27 08:38:41;;;;;;;8.47;4.00;;;3.30;99.90;;;;;;4977388;28;20484;-63
2023/12/27 08:41:09;;;;;;;5.10;2.90;;;3.30;99.90;;;;;;4978870;28;20558;-63
2023/12/27 08:43:37;;;;;;;4.97;3.03;;;3.40;99.90;;;;;;4979000;28;20564;-64
2023/12/27 08:46:10;;;;;;;3.60;2.97;;;3.40;99.90;;;;;;4980140;28;20497;-63
2023/12/27 08:48:39;;;;;;;5.13;3.13;;;3.40;99.90;;;;;;4979395;28;20496;-64
2023/12/27 08:51:07;;;;;;;6.07;3.43;;;3.50;99.90;;;;;;4978718;28;20477;-64
2023/12/27 08:53:35;;;;;;;7.03;3.20;;;3.50;99.90;;;;;;4982780;28;21235;-64
2023/12/27 08:56:04;;;;;;;8.00;3.47;;;3.60;99.90;;;;;;4982887;28;21112;-64
2023/12/27 08:58:32;;;;;;;10.10;3.87;;;3.60;99.90;;;;;;4979546;28;21158;-64
2023/12/27 09:01:01;;;;;;;6.30;3.07;;;3.60;99.90;;;;;;4982466;28;20482;-64
2023/12/27 09:03:31;;;;;;;10.93;3.53;;;3.70;99.90;;;;;;4984012;28;20469;-64
2023/12/27 09:05:59;;;;;;;7.43;3.80;;;3.70;99.90;;;;;;4982309;28;20996;-64
2023/12/27 09:08:27;;;;;;;5.47;3.20;;;3.80;99.90;;;;;;4981438;28;20576;-64
2023/12/27 09:10:55;;;;;;;5.80;3.50;;;3.80;99.90;;;;;;4982942;28;20855;-63
2023/12/27 09:13:23;;;;;;;6.17;3.33;;;3.80;99.90;;;;;;4981063;28;20476;-64
2023/12/27 09:15:51;;;;;;;9.50;3.57;;;3.90;99.90;;;;;;4979543;28;20493;-63
2023/12/27 09:18:19;;;;;;;8.20;4.40;;;3.90;99.90;;;;;;4982296;28;20486;-64
2023/12/27 09:20:49;;;;;;;6.07;3.97;;;3.90;99.90;;;;;;4982829;28;20480;-64
2023/12/27 09:23:17;;;;;;;8.90;3.20;;;3.90;99.90;;;;;;4981221;28;20948;-63
2023/12/27 09:25:45;;;;;;;4.83;3.60;;;4.00;99.90;;;;;;4980204;28;20786;-64
2023/12/27 09:28:13;;;;;;;10.10;3.67;;;4.10;99.90;;;;;;4981370;28;20481;-63
2023/12/27 09:30:41;;;;;;;8.17;3.73;;;4.10;99.90;;;;;;4970347;28;20497;-64
2023/12/27 09:33:09;;;;;;;6.60;3.77;;;4.10;99.90;;;;;;4974604;28;20469;-63
2023/12/27 09:35:40;;;;;;;9.30;4.83;;;4.20;99.90;;;;;;4973227;28;20474;-64
2023/12/27 09:38:10;;;;;;;5.77;3.50;;;4.20;99.90;;;;;;4980901;28;20560;-63
2023/12/27 09:40:38;;;;;;;6.70;3.20;;;4.20;99.90;;;;;;4981059;28;20501;-64
2023/12/27 09:43:07;;;;;;;6.13;3.70;;;4.30;99.90;;;;;;4978145;28;20568;-64
2023/12/27 09:45:37;;;;;;;7.80;4.60;;;4.30;99.90;;;;;;4982023;28;20543;-63
2023/12/27 09:48:07;;;;;;;5.40;3.10;;;4.30;99.90;;;;;;4980991;28;20480;-64
2023/12/27 09:50:36;;;;;;;9.20;3.70;;;4.40;99.90;;;;;;4981061;28;20821;-64
2023/12/27 09:53:06;;;;;;;8.20;3.83;;;4.40;99.90;;;;;;4981784;28;20561;-63
2023/12/27 09:55:36;;;;;;;6.73;3.50;;;4.40;99.90;;;;;;4981848;28;20465;-63
2023/12/27 09:58:05;;;;;;;7.07;3.50;;;4.50;99.90;;;;;;4982190;28;20479;-63
2023/12/27 10:00:34;;;;;;;9.97;3.43;;;4.50;99.90;;;;;;4979617;28;20993;-64
2023/12/27 10:03:05;;;;;;;5.00;2.90;;;4.50;99.90;;;;;;4981641;28;20484;-64
2023/12/27 10:05:43;;;;;;;8.30;3.53;;;4.60;99.90;;;;;;4982221;28;20489;-64
2023/12/27 10:08:11;;;;;;;10.33;4.20;;;4.60;99.90;;;;;;4982003;28;20564;-64
2023/12/27 10:10:42;;;;;;;11.23;5.10;;;4.60;99.90;;;;;;4965575;28;20890;-64
2023/12/27 10:13:13;;;;;;;6.70;3.93;;;4.70;99.90;;;;;;4979890;28;20560;-64
2023/12/27 10:15:41;;;;;;;8.37;4.53;;;4.70;99.90;;;;;;4981988;28;20986;-64
2023/12/27 10:18:09;;;;;;;9.37;4.37;;;4.70;99.90;;;;;;4981744;28;20481;-64
2023/12/27 10:20:38;;;;;;;9.43;4.00;;;4.70;99.90;;;;;;4980719;28;20481;-64
2023/12/27 10:23:06;;;;;;;7.10;3.90;;;4.70;99.90;;;;;;4980351;28;20502;-64
2023/12/27 10:25:34;;;;;;;9.00;4.37;;;4.70;99.90;;;;;;4979925;28;20488;-64
2023/12/27 10:28:04;;;;;;;7.27;4.10;;;4.80;99.90;;;;;;4980256;28;20883;-64
2023/12/27 10:30:32;;;;;;;8.33;3.40;;;4.70;99.90;;;;;;4979951;28;21152;-64
2023/12/27 10:33:02;;;;;;;7.20;3.70;;;4.70;99.90;;;;;;4980526;28;20474;-64
2023/12/27 10:35:31;;;;;;;6.80;4.70;;;4.70;99.90;;;;;;4980564;28;20477;-64
2023/12/27 10:38:01;;;;;;;4.70;3.10;;;4.70;99.90;;;;;;4976171;28;20474;-64
2023/12/27 10:40:30;;;;;;;6.20;2.80;;;4.70;99.90;;;;;;4976837;28;20511;-64
2023/12/27 10:42:58;;;;;;;7.33;3.47;;;4.70;99.90;;;;;;4980657;28;20481;-64
2023/12/27 10:45:28;;;;;;;5.67;3.30;;;4.70;99.90;;;;;;4980450;28;20554;-64
2023/12/27 10:47:59;;;;;;;7.47;4.40;;;4.80;99.90;;;;;;4979261;28;20496;-64
2023/12/27 10:50:31;;;;;;;4.93;3.50;;;4.70;99.90;;;;;;4980316;28;20974;-63
2023/12/27 10:53:03;;;;;;;6.13;3.57;;;4.70;99.90;;;;;;4981690;28;20466;-63
2023/12/27 10:55:32;;;;;;;8.20;3.60;;;4.70;99.90;;;;;;4979533;28;20470;-63
2023/12/27 10:58:02;;;;;;;8.50;3.40;;;4.70;99.90;;;;;;4978769;28;20489;-66
2023/12/27 11:00:32;;;;;;;10.07;3.60;;;4.70;99.90;;;;;;4980420;28;20474;-64
2023/12/27 11:03:01;;;;;;;11.60;4.37;;;4.70;99.90;;;;;;4981187;28;20924;-63
2023/12/27 11:05:31;;;;;;;7.47;4.00;;;4.70;99.90;;;;;;4976201;28;20474;-66
2023/12/27 11:08:01;;;;;;;6.57;3.97;;;4.70;99.90;;;;;;4980375;28;20484;-63
2023/12/27 11:10:31;;;;;;;12.63;4.27;;;4.70;99.90;;;;;;4978414;28;20480;-64
2023/12/27 11:12:59;;;;;;;13.13;4.10;;;4.70;99.90;;;;;;4979320;28;20951;-63
2023/12/27 11:15:28;;;;;;;5.43;3.77;;;4.70;99.90;;;;;;4978679;28;20981;-66
2023/12/27 11:18:01;;;;;;;5.10;3.17;;;4.70;99.90;;;;;;4979681;28;20552;-66
2023/12/27 11:20:32;;;;;;;5.73;3.80;;;4.70;99.90;;;;;;4980731;28;20987;-64
2023/12/27 11:23:00;;;;;;;4.50;3.70;;;4.70;99.90;;;;;;4976549;28;20509;-64
2023/12/27 11:25:29;;;;;;;7.07;3.33;;;4.80;99.90;;;;;;4977061;28;20921;-63
2023/12/27 11:27:59;;;;;;;5.33;3.27;;;4.80;99.90;;;;;;4977810;28;21244;-64
2023/12/27 11:30:28;;;;;;;5.53;3.07;;;4.80;99.90;;;;;;4979903;28;20565;-64
2023/12/27 11:32:57;;;;;;;6.57;3.57;;;4.80;99.90;;;;;;4981496;28;20508;-63
2023/12/27 11:35:29;;;;;;;8.67;3.70;;;4.80;99.90;;;;;;4980294;28;20515;-64
2023/12/27 11:38:15;;;;;;;6.30;3.27;;;4.80;99.90;;;;;;4980217;28;20492;-64
2023/12/27 11:40:44;;;;;;;7.83;3.40;;;4.80;99.90;;;;;;4979626;28;20483;-64
2023/12/27 11:43:20;;;;;;;9.10;3.40;;;4.80;99.90;;;;;;4976238;28;21006;-64
2023/12/27 11:45:58;;;;;;;5.40;3.50;;;4.80;99.90;;;;;;4979508;28;20886;-64
2023/12/27 11:48:27;;;;;;;9.30;3.23;;;4.80;99.90;;;;;;4979377;28;20504;-64
2023/12/27 11:50:58;;;;;;;11.97;3.53;;;4.80;99.90;;;;;;4978227;28;20927;-64
2023/12/27 11:53:27;;;;;;;9.27;3.00;;;4.80;99.90;;;;;;4980173;28;20577;-64
2023/12/27 11:55:59;;;;;;;4.30;2.73;;;4.80;99.90;;;;;;4979350;28;20592;-64
2023/12/27 11:58:35;;;;;;;6.00;3.47;;;4.80;99.90;;;;;;4979263;28;20591;-64
2023/12/27 12:01:26;;;;;;;6.60;2.90;;;4.80;99.90;;;;;;4979142;28;21253;-64
2023/12/27 12:04:11;;;;;;;4.90;3.00;;;4.80;99.90;;;;;;4979941;28;20497;-64
2023/12/27 12:06:59;;;;;;;4.50;2.97;;;4.90;99.90;;;;;;4981096;28;20488;-64
2023/12/27 12:09:31;;;;;;;6.20;4.13;;;4.90;99.90;;;;;;4976800;28;20572;-64
2023/12/27 12:12:09;;;;;;;14.83;3.90;;;4.90;99.90;;;;;;4979398;28;20481;-64
2023/12/27 12:14:39;;;;;;;13.60;3.73;;;5.00;99.90;;;;;;4980017;28;20564;-63
2023/12/27 12:17:09;;;;;;;15.60;3.63;;;5.00;99.90;;;;;;4976908;28;20481;-64
2023/12/27 12:19:37;;;;;;;5.13;3.10;;;5.00;99.90;;;;;;4979957;28;20583;-64
2023/12/27 12:22:07;;;;;;;6.70;2.87;;;5.00;99.90;;;;;;4979750;28;20478;-64
2023/12/27 12:24:35;;;;;;;5.20;3.00;;;5.00;99.90;;;;;;4976023;28;20481;-64
2023/12/27 12:27:03;;;;;;;5.93;2.60;;;5.00;99.90;;;;;;4982222;28;21259;-64
2023/12/27 12:29:31;;;;;;;6.90;3.00;;;5.00;99.90;;;;;;4982401;28;20490;-64
2023/12/27 12:31:59;;;;;;;7.13;3.37;;;5.00;99.90;;;;;;4983141;28;20475;-64
2023/12/27 12:34:27;;;;;;;7.97;3.20;;;5.00;99.90;;;;;;4982225;28;20637;-64
2023/12/27 12:36:56;;;;;;;5.07;2.93;;;5.00;99.90;;;;;;4982711;28;20489;-64
2023/12/27 12:39:27;;;;;;;9.50;3.07;;;5.00;99.90;;;;;;4981907;28;20564;-64
2023/12/27 12:41:56;;;;;;;7.40;3.07;;;5.00;99.90;;;;;;4983591;28;20990;-63
2023/12/27 12:44:24;;;;;;;6.30;3.23;;;5.00;99.90;;;;;;4979006;28;20533;-64
2023/12/27 12:46:55;;;;;;;5.80;3.23;;;4.90;99.90;;;;;;4983733;28;20588;-64
2023/12/27 12:49:24;;;;;;;5.50;2.93;;;5.00;99.90;;;;;;4982733;28;20887;-64
2023/12/27 12:51:53;;;;;;;3.33;2.50;;;5.00;99.90;;;;;;4981932;28;20528;-64
2023/12/27 12:54:21;;;;;;;5.53;2.70;;;5.00;99.90;;;;;;4981610;28;20473;-64
2023/12/27 12:56:51;;;;;;;6.33;2.47;;;5.00;99.90;;;;;;4983789;28;21036;-64
2023/12/27 12:59:19;;;;;;;5.83;2.20;;;4.90;99.90;;;;;;4981088;28;20485;-64
2023/12/27 13:01:47;;;;;;;4.70;2.47;;;5.00;99.90;;;;;;4984777;28;20557;-64
2023/12/27 13:04:15;;;;;;;4.20;2.43;;;5.00;99.90;;;;;;4981420;28;20650;-64
2023/12/27 13:06:43;;;;;;;5.20;2.53;;;5.00;99.90;;;;;;4979190;28;20939;-63